sensor_id;sensor_type;location;lat;lon;timestamp;P1;durP1;ratioP1;P2;durP2;ratioP2
15831;SDS011;8016;49.928;9.372;2023-07-24T00:00:02;4.43;;;3.60;;
15831;SDS011;8016;49.928;9.372;2023-07-24T00:02:28;3.87;;;3.57;;
15831;SDS011;8016;49.928;9.372;2023-07-24T00:04:54;3.90;;;3.57;;
15831;SDS011;8016;49.928;9.372;2023-07-24T00:07:20;5.07;;;3.80;;
15831;SDS011;8016;49.928;9.372;2023-07-24T00:09:46;4.17;;;3.70;;
15831;SDS011;8016;49.928;9.372;2023-07-24T00:12:12;4.40;;;4.00;;
15831;SDS011;8016;49.928;9.372;2023-07-24T00:14:38;3.90;;;3.60;;
15831;SDS011;8016;49.928;9.372;2023-07-24T00:17:04;5.23;;;3.50;;
15831;SDS011;8016;49.928;9.372;2023-07-24T00:19:30;5.53;;;4.10;;
15831;SDS011;8016;49.928;9.372;2023-07-24T00:21:56;5.17;;;3.60;;
15831;SDS011;8016;49.928;9.372;2023-07-24T00:24:22;4.30;;;3.90;;
15831;SDS011;8016;49.928;9.372;2023-07-24T00:26:48;3.77;;;3.37;;
15831;SDS011;8016;49.928;9.372;2023-07-24T00:29:14;5.83;;;3.97;;
15831;SDS011;8016;49.928;9.372;2023-07-24T00:31:40;4.07;;;3.67;;
15831;SDS011;8016;49.928;9.372;2023-07-24T00:34:06;5.80;;;4.27;;
15831;SDS011;8016;49.928;9.372;2023-07-24T00:36:32;5.23;;;3.53;;
15831;SDS011;8016;49.928;9.372;2023-07-24T00:38:58;4.43;;;3.53;;
15831;SDS011;8016;49.928;9.372;2023-07-24T00:41:24;5.20;;;3.63;;
15831;SDS011;8016;49.928;9.372;2023-07-24T00:43:50;4.33;;;3.63;;
15831;SDS011;8016;49.928;9.372;2023-07-24T00:46:16;4.17;;;3.33;;
15831;SDS011;8016;49.928;9.372;2023-07-24T00:48:42;5.23;;;3.43;;
15831;SDS011;8016;49.928;9.372;2023-07-24T00:51:08;4.03;;;3.63;;
15831;SDS011;8016;49.928;9.372;2023-07-24T00:53:34;3.70;;;3.30;;
15831;SDS011;8016;49.928;9.372;2023-07-24T00:56:00;4.97;;;3.70;;
15831;SDS011;8016;49.928;9.372;2023-07-24T00:58:26;4.40;;;3.33;;
15831;SDS011;8016;49.928;9.372;2023-07-24T01:00:52;4.30;;;3.90;;
15831;SDS011;8016;49.928;9.372;2023-07-24T01:03:18;4.30;;;3.90;;
15831;SDS011;8016;49.928;9.372;2023-07-24T01:05:44;6.43;;;3.67;;
15831;SDS011;8016;49.928;9.372;2023-07-24T01:08:10;6.20;;;3.83;;
15831;SDS011;8016;49.928;9.372;2023-07-24T01:10:36;3.57;;;3.23;;
15831;SDS011;8016;49.928;9.372;2023-07-24T01:13:05;4.50;;;3.57;;
15831;SDS011;8016;49.928;9.372;2023-07-24T01:15:38;4.90;;;3.73;;
15831;SDS011;8016;49.928;9.372;2023-07-24T01:18:10;4.37;;;3.97;;
15831;SDS011;8016;49.928;9.372;2023-07-24T01:20:37;5.00;;;3.20;;
15831;SDS011;8016;49.928;9.372;2023-07-24T01:25:36;4.83;;;3.60;;
15831;SDS011;8016;49.928;9.372;2023-07-24T01:28:07;5.20;;;4.07;;
15831;SDS011;8016;49.928;9.372;2023-07-24T01:30:33;4.27;;;3.87;;
15831;SDS011;8016;49.928;9.372;2023-07-24T01:32:59;4.83;;;3.40;;
15831;SDS011;8016;49.928;9.372;2023-07-24T01:35:25;4.23;;;3.63;;
15831;SDS011;8016;49.928;9.372;2023-07-24T01:37:52;4.27;;;3.87;;
15831;SDS011;8016;49.928;9.372;2023-07-24T01:40:18;4.50;;;3.47;;
15831;SDS011;8016;49.928;9.372;2023-07-24T01:42:45;4.10;;;3.40;;
15831;SDS011;8016;49.928;9.372;2023-07-24T01:45:11;3.50;;;3.20;;
15831;SDS011;8016;49.928;9.372;2023-07-24T01:47:37;4.00;;;3.60;;
15831;SDS011;8016;49.928;9.372;2023-07-24T01:50:03;3.60;;;3.30;;
15831;SDS011;8016;49.928;9.372;2023-07-24T01:52:29;4.03;;;3.70;;
15831;SDS011;8016;49.928;9.372;2023-07-24T01:54:55;8.87;;;3.77;;
15831;SDS011;8016;49.928;9.372;2023-07-24T01:57:21;5.47;;;3.90;;
15831;SDS011;8016;49.928;9.372;2023-07-24T01:59:47;3.70;;;3.37;;
15831;SDS011;8016;49.928;9.372;2023-07-24T02:02:13;4.97;;;3.83;;
15831;SDS011;8016;49.928;9.372;2023-07-24T02:04:39;4.87;;;3.60;;
15831;SDS011;8016;49.928;9.372;2023-07-24T02:07:05;4.63;;;4.13;;
15831;SDS011;8016;49.928;9.372;2023-07-24T02:09:31;3.73;;;3.30;;
15831;SDS011;8016;49.928;9.372;2023-07-24T02:11:57;4.13;;;3.73;;
15831;SDS011;8016;49.928;9.372;2023-07-24T02:14:23;4.43;;;3.87;;
15831;SDS011;8016;49.928;9.372;2023-07-24T02:16:49;6.10;;;3.63;;
15831;SDS011;8016;49.928;9.372;2023-07-24T02:19:15;4.63;;;3.73;;
15831;SDS011;8016;49.928;9.372;2023-07-24T02:21:41;5.57;;;3.77;;
15831;SDS011;8016;49.928;9.372;2023-07-24T02:24:07;4.80;;;3.83;;
15831;SDS011;8016;49.928;9.372;2023-07-24T02:26:33;4.50;;;3.70;;
15831;SDS011;8016;49.928;9.372;2023-07-24T02:28:59;5.03;;;4.17;;
15831;SDS011;8016;49.928;9.372;2023-07-24T02:31:25;4.40;;;4.00;;
15831;SDS011;8016;49.928;9.372;2023-07-24T02:33:51;3.77;;;3.37;;
15831;SDS011;8016;49.928;9.372;2023-07-24T02:36:17;5.13;;;3.77;;
15831;SDS011;8016;49.928;9.372;2023-07-24T02:38:43;5.50;;;4.30;;
15831;SDS011;8016;49.928;9.372;2023-07-24T02:41:09;6.47;;;3.83;;
15831;SDS011;8016;49.928;9.372;2023-07-24T02:43:35;4.30;;;3.90;;
15831;SDS011;8016;49.928;9.372;2023-07-24T02:46:01;4.13;;;3.73;;
15831;SDS011;8016;49.928;9.372;2023-07-24T02:48:27;4.50;;;4.10;;
15831;SDS011;8016;49.928;9.372;2023-07-24T02:50:53;4.30;;;3.90;;
15831;SDS011;8016;49.928;9.372;2023-07-24T02:53:19;4.70;;;4.17;;
15831;SDS011;8016;49.928;9.372;2023-07-24T02:55:45;4.13;;;3.73;;
15831;SDS011;8016;49.928;9.372;2023-07-24T02:58:12;4.20;;;3.80;;
15831;SDS011;8016;49.928;9.372;2023-07-24T03:00:38;4.27;;;3.70;;
15831;SDS011;8016;49.928;9.372;2023-07-24T03:03:04;4.27;;;3.87;;
15831;SDS011;8016;49.928;9.372;2023-07-24T03:05:30;4.70;;;3.87;;
15831;SDS011;8016;49.928;9.372;2023-07-24T03:07:56;4.17;;;3.83;;
15831;SDS011;8016;49.928;9.372;2023-07-24T03:10:23;4.10;;;3.70;;
15831;SDS011;8016;49.928;9.372;2023-07-24T03:12:49;4.03;;;3.63;;
15831;SDS011;8016;49.928;9.372;2023-07-24T03:15:15;5.57;;;3.90;;
15831;SDS011;8016;49.928;9.372;2023-07-24T03:17:41;4.13;;;3.73;;
15831;SDS011;8016;49.928;9.372;2023-07-24T03:20:14;4.33;;;3.93;;
15831;SDS011;8016;49.928;9.372;2023-07-24T03:22:41;5.27;;;4.20;;
15831;SDS011;8016;49.928;9.372;2023-07-24T03:25:07;6.53;;;3.60;;
15831;SDS011;8016;49.928;9.372;2023-07-24T03:27:33;4.17;;;3.77;;
15831;SDS011;8016;49.928;9.372;2023-07-24T03:29:59;4.60;;;4.00;;
15831;SDS011;8016;49.928;9.372;2023-07-24T03:32:25;4.50;;;4.07;;
15831;SDS011;8016;49.928;9.372;2023-07-24T03:34:51;5.47;;;4.30;;
15831;SDS011;8016;49.928;9.372;2023-07-24T03:37:17;5.17;;;4.33;;
15831;SDS011;8016;49.928;9.372;2023-07-24T03:39:43;5.77;;;3.57;;
15831;SDS011;8016;49.928;9.372;2023-07-24T03:42:09;6.77;;;4.70;;
15831;SDS011;8016;49.928;9.372;2023-07-24T03:44:39;6.33;;;4.00;;
15831;SDS011;8016;49.928;9.372;2023-07-24T03:47:06;4.50;;;3.60;;
15831;SDS011;8016;49.928;9.372;2023-07-24T03:49:31;4.27;;;3.87;;
15831;SDS011;8016;49.928;9.372;2023-07-24T03:51:57;5.27;;;4.07;;
15831;SDS011;8016;49.928;9.372;2023-07-24T03:54:23;5.80;;;4.40;;
15831;SDS011;8016;49.928;9.372;2023-07-24T03:56:49;6.13;;;3.83;;
15831;SDS011;8016;49.928;9.372;2023-07-24T03:59:15;3.63;;;3.33;;
15831;SDS011;8016;49.928;9.372;2023-07-24T04:01:41;5.10;;;4.13;;
15831;SDS011;8016;49.928;9.372;2023-07-24T04:04:07;5.13;;;4.63;;
15831;SDS011;8016;49.928;9.372;2023-07-24T04:06:33;4.57;;;4.10;;
15831;SDS011;8016;49.928;9.372;2023-07-24T04:08:59;5.63;;;4.10;;
15831;SDS011;8016;49.928;9.372;2023-07-24T04:11:25;4.90;;;4.40;;
15831;SDS011;8016;49.928;9.372;2023-07-24T04:13:51;4.73;;;4.30;;
15831;SDS011;8016;49.928;9.372;2023-07-24T04:16:17;4.80;;;4.37;;
15831;SDS011;8016;49.928;9.372;2023-07-24T04:18:43;5.77;;;4.43;;
15831;SDS011;8016;49.928;9.372;2023-07-24T04:21:09;4.03;;;3.50;;
15831;SDS011;8016;49.928;9.372;2023-07-24T04:23:35;5.40;;;3.97;;
15831;SDS011;8016;49.928;9.372;2023-07-24T04:26:01;4.87;;;3.80;;
15831;SDS011;8016;49.928;9.372;2023-07-24T04:28:27;4.37;;;3.90;;
15831;SDS011;8016;49.928;9.372;2023-07-24T04:30:53;5.60;;;3.70;;
15831;SDS011;8016;49.928;9.372;2023-07-24T04:33:19;4.10;;;3.70;;
15831;SDS011;8016;49.928;9.372;2023-07-24T04:35:48;4.87;;;3.67;;
15831;SDS011;8016;49.928;9.372;2023-07-24T04:38:14;5.90;;;4.30;;
15831;SDS011;8016;49.928;9.372;2023-07-24T04:40:43;4.30;;;3.90;;
15831;SDS011;8016;49.928;9.372;2023-07-24T04:43:10;4.77;;;3.73;;
15831;SDS011;8016;49.928;9.372;2023-07-24T04:45:36;4.80;;;4.30;;
15831;SDS011;8016;49.928;9.372;2023-07-24T04:48:01;7.60;;;3.90;;
15831;SDS011;8016;49.928;9.372;2023-07-24T04:50:27;4.40;;;4.00;;
15831;SDS011;8016;49.928;9.372;2023-07-24T04:52:54;4.77;;;4.00;;
15831;SDS011;8016;49.928;9.372;2023-07-24T04:55:20;4.37;;;3.63;;
15831;SDS011;8016;49.928;9.372;2023-07-24T04:57:46;4.77;;;3.93;;
15831;SDS011;8016;49.928;9.372;2023-07-24T05:00:12;4.27;;;3.87;;
15831;SDS011;8016;49.928;9.372;2023-07-24T05:02:38;5.23;;;4.40;;
15831;SDS011;8016;49.928;9.372;2023-07-24T05:05:05;6.57;;;4.20;;
15831;SDS011;8016;49.928;9.372;2023-07-24T05:07:31;6.23;;;4.17;;
15831;SDS011;8016;49.928;9.372;2023-07-24T05:09:57;5.40;;;3.53;;
15831;SDS011;8016;49.928;9.372;2023-07-24T05:12:23;3.77;;;3.43;;
15831;SDS011;8016;49.928;9.372;2023-07-24T05:14:49;5.07;;;4.33;;
15831;SDS011;8016;49.928;9.372;2023-07-24T05:17:15;4.83;;;3.80;;
15831;SDS011;8016;49.928;9.372;2023-07-24T05:19:41;5.30;;;4.37;;
15831;SDS011;8016;49.928;9.372;2023-07-24T05:22:07;3.87;;;3.47;;
15831;SDS011;8016;49.928;9.372;2023-07-24T05:24:35;4.97;;;3.63;;
15831;SDS011;8016;49.928;9.372;2023-07-24T05:27:01;4.17;;;3.60;;
15831;SDS011;8016;49.928;9.372;2023-07-24T05:29:27;5.37;;;4.00;;
15831;SDS011;8016;49.928;9.372;2023-07-24T05:31:53;4.17;;;3.50;;
15831;SDS011;8016;49.928;9.372;2023-07-24T05:34:19;9.53;;;4.17;;
15831;SDS011;8016;49.928;9.372;2023-07-24T05:36:45;5.53;;;3.87;;
15831;SDS011;8016;49.928;9.372;2023-07-24T05:39:11;4.30;;;3.90;;
15831;SDS011;8016;49.928;9.372;2023-07-24T05:41:36;5.40;;;3.97;;
15831;SDS011;8016;49.928;9.372;2023-07-24T05:44:02;4.90;;;3.60;;
15831;SDS011;8016;49.928;9.372;2023-07-24T05:46:28;4.00;;;3.53;;
15831;SDS011;8016;49.928;9.372;2023-07-24T05:48:54;4.80;;;4.13;;
15831;SDS011;8016;49.928;9.372;2023-07-24T05:51:21;4.13;;;3.77;;
15831;SDS011;8016;49.928;9.372;2023-07-24T05:53:47;4.43;;;3.87;;
15831;SDS011;8016;49.928;9.372;2023-07-24T05:56:13;4.20;;;3.80;;
15831;SDS011;8016;49.928;9.372;2023-07-24T05:58:39;6.07;;;3.60;;
15831;SDS011;8016;49.928;9.372;2023-07-24T06:01:05;4.70;;;4.00;;
15831;SDS011;8016;49.928;9.372;2023-07-24T06:03:34;6.00;;;3.33;;
15831;SDS011;8016;49.928;9.372;2023-07-24T06:06:00;4.20;;;3.80;;
15831;SDS011;8016;49.928;9.372;2023-07-24T06:08:26;6.30;;;3.50;;
15831;SDS011;8016;49.928;9.372;2023-07-24T06:10:52;5.37;;;3.67;;
15831;SDS011;8016;49.928;9.372;2023-07-24T06:13:19;4.23;;;3.60;;
15831;SDS011;8016;49.928;9.372;2023-07-24T06:15:47;4.37;;;3.70;;
15831;SDS011;8016;49.928;9.372;2023-07-24T06:18:13;4.23;;;3.63;;
15831;SDS011;8016;49.928;9.372;2023-07-24T06:20:39;5.67;;;3.90;;
15831;SDS011;8016;49.928;9.372;2023-07-24T06:23:05;3.90;;;3.60;;
15831;SDS011;8016;49.928;9.372;2023-07-24T06:25:31;4.80;;;4.30;;
15831;SDS011;8016;49.928;9.372;2023-07-24T06:27:57;4.10;;;3.57;;
15831;SDS011;8016;49.928;9.372;2023-07-24T06:30:24;4.30;;;3.90;;
15831;SDS011;8016;49.928;9.372;2023-07-24T06:32:50;4.83;;;3.87;;
15831;SDS011;8016;49.928;9.372;2023-07-24T06:35:16;4.17;;;3.77;;
15831;SDS011;8016;49.928;9.372;2023-07-24T06:37:42;4.60;;;3.83;;
15831;SDS011;8016;49.928;9.372;2023-07-24T06:40:08;4.10;;;3.80;;
15831;SDS011;8016;49.928;9.372;2023-07-24T06:42:35;4.33;;;3.93;;
15831;SDS011;8016;49.928;9.372;2023-07-24T06:45:01;3.97;;;3.30;;
15831;SDS011;8016;49.928;9.372;2023-07-24T06:47:27;4.60;;;3.67;;
15831;SDS011;8016;49.928;9.372;2023-07-24T06:49:53;4.37;;;3.97;;
15831;SDS011;8016;49.928;9.372;2023-07-24T06:52:19;4.67;;;4.00;;
15831;SDS011;8016;49.928;9.372;2023-07-24T06:54:45;4.60;;;3.97;;
15831;SDS011;8016;49.928;9.372;2023-07-24T06:57:11;5.47;;;3.80;;
15831;SDS011;8016;49.928;9.372;2023-07-24T06:59:36;5.93;;;4.40;;
15831;SDS011;8016;49.928;9.372;2023-07-24T07:02:02;5.63;;;4.43;;
15831;SDS011;8016;49.928;9.372;2023-07-24T07:04:29;4.60;;;3.80;;
15831;SDS011;8016;49.928;9.372;2023-07-24T07:06:55;5.70;;;4.13;;
15831;SDS011;8016;49.928;9.372;2023-07-24T07:09:21;5.00;;;4.30;;
15831;SDS011;8016;49.928;9.372;2023-07-24T07:11:46;4.13;;;3.73;;
15831;SDS011;8016;49.928;9.372;2023-07-24T07:14:12;7.00;;;4.07;;
15831;SDS011;8016;49.928;9.372;2023-07-24T07:16:38;5.53;;;4.47;;
15831;SDS011;8016;49.928;9.372;2023-07-24T07:19:05;5.83;;;4.70;;
15831;SDS011;8016;49.928;9.372;2023-07-24T07:21:34;4.17;;;3.77;;
15831;SDS011;8016;49.928;9.372;2023-07-24T07:24:00;5.50;;;3.90;;
15831;SDS011;8016;49.928;9.372;2023-07-24T07:26:26;4.20;;;3.80;;
15831;SDS011;8016;49.928;9.372;2023-07-24T07:28:54;4.70;;;3.97;;
15831;SDS011;8016;49.928;9.372;2023-07-24T07:31:20;7.70;;;4.70;;
15831;SDS011;8016;49.928;9.372;2023-07-24T07:33:46;5.90;;;5.30;;
15831;SDS011;8016;49.928;9.372;2023-07-24T07:36:13;7.27;;;6.20;;
15831;SDS011;8016;49.928;9.372;2023-07-24T07:38:39;7.53;;;6.73;;
15831;SDS011;8016;49.928;9.372;2023-07-24T07:41:05;7.67;;;6.50;;
15831;SDS011;8016;49.928;9.372;2023-07-24T07:43:31;8.87;;;6.37;;
15831;SDS011;8016;49.928;9.372;2023-07-24T07:45:57;7.30;;;6.40;;
15831;SDS011;8016;49.928;9.372;2023-07-24T07:48:24;7.00;;;6.20;;
15831;SDS011;8016;49.928;9.372;2023-07-24T07:50:53;7.53;;;6.73;;
15831;SDS011;8016;49.928;9.372;2023-07-24T07:53:19;8.50;;;6.03;;
15831;SDS011;8016;49.928;9.372;2023-07-24T07:55:44;7.73;;;6.93;;
15831;SDS011;8016;49.928;9.372;2023-07-24T07:58:10;6.40;;;5.75;;
15831;SDS011;8016;49.928;9.372;2023-07-24T08:00:36;6.50;;;5.77;;
15831;SDS011;8016;49.928;9.372;2023-07-24T08:03:06;10.30;;;6.70;;
15831;SDS011;8016;49.928;9.372;2023-07-24T08:05:32;7.90;;;6.20;;
15831;SDS011;8016;49.928;9.372;2023-07-24T08:07:58;8.40;;;7.47;;
15831;SDS011;8016;49.928;9.372;2023-07-24T08:10:24;9.07;;;6.38;;
15831;SDS011;8016;49.928;9.372;2023-07-24T08:12:50;8.20;;;6.07;;
15831;SDS011;8016;49.928;9.372;2023-07-24T08:15:16;8.77;;;6.73;;
15831;SDS011;8016;49.928;9.372;2023-07-24T08:17:41;8.40;;;6.95;;
15831;SDS011;8016;49.928;9.372;2023-07-24T08:20:07;7.72;;;6.40;;
15831;SDS011;8016;49.928;9.372;2023-07-24T08:22:33;9.63;;;5.95;;
15831;SDS011;8016;49.928;9.372;2023-07-24T08:25:00;7.78;;;6.13;;
15831;SDS011;8016;49.928;9.372;2023-07-24T08:27:26;7.50;;;6.57;;
15831;SDS011;8016;49.928;9.372;2023-07-24T08:29:52;7.10;;;6.40;;
15831;SDS011;8016;49.928;9.372;2023-07-24T08:32:18;6.88;;;6.18;;
15831;SDS011;8016;49.928;9.372;2023-07-24T08:34:44;7.00;;;6.30;;
15831;SDS011;8016;49.928;9.372;2023-07-24T08:37:11;7.50;;;5.93;;
15831;SDS011;8016;49.928;9.372;2023-07-24T08:39:37;6.82;;;6.00;;
15831;SDS011;8016;49.928;9.372;2023-07-24T08:42:13;8.90;;;6.05;;
15831;SDS011;8016;49.928;9.372;2023-07-24T08:44:39;7.13;;;5.55;;
15831;SDS011;8016;49.928;9.372;2023-07-24T08:47:06;6.53;;;5.93;;
15831;SDS011;8016;49.928;9.372;2023-07-24T08:49:35;9.07;;;6.20;;
15831;SDS011;8016;49.928;9.372;2023-07-24T08:52:02;6.93;;;6.10;;
15831;SDS011;8016;49.928;9.372;2023-07-24T08:54:29;7.20;;;6.15;;
15831;SDS011;8016;49.928;9.372;2023-07-24T08:56:56;7.07;;;6.35;;
15831;SDS011;8016;49.928;9.372;2023-07-24T08:59:22;7.57;;;6.60;;
15831;SDS011;8016;49.928;9.372;2023-07-24T09:01:48;8.27;;;6.25;;
15831;SDS011;8016;49.928;9.372;2023-07-24T09:04:14;7.10;;;6.40;;
15831;SDS011;8016;49.928;9.372;2023-07-24T09:06:40;8.13;;;6.50;;
15831;SDS011;8016;49.928;9.372;2023-07-24T09:09:15;7.75;;;6.70;;
15831;SDS011;8016;49.928;9.372;2023-07-24T09:11:51;9.40;;;6.45;;
15831;SDS011;8016;49.928;9.372;2023-07-24T09:14:27;7.85;;;6.38;;
15831;SDS011;8016;49.928;9.372;2023-07-24T09:19:29;7.00;;;6.30;;
15831;SDS011;8016;49.928;9.372;2023-07-24T09:21:55;9.30;;;7.35;;
15831;SDS011;8016;49.928;9.372;2023-07-24T09:24:21;8.38;;;6.40;;
15831;SDS011;8016;49.928;9.372;2023-07-24T09:26:47;10.15;;;6.38;;
15831;SDS011;8016;49.928;9.372;2023-07-24T09:29:13;7.55;;;6.72;;
15831;SDS011;8016;49.928;9.372;2023-07-24T09:31:39;17.30;;;14.68;;
15831;SDS011;8016;49.928;9.372;2023-07-24T09:34:13;8.35;;;7.40;;
15831;SDS011;8016;49.928;9.372;2023-07-24T09:36:39;7.95;;;6.22;;
15831;SDS011;8016;49.928;9.372;2023-07-24T09:39:05;9.88;;;6.55;;
15831;SDS011;8016;49.928;9.372;2023-07-24T09:41:35;7.22;;;6.53;;
15831;SDS011;8016;49.928;9.372;2023-07-24T09:44:01;7.00;;;6.28;;
15831;SDS011;8016;49.928;9.372;2023-07-24T09:46:27;7.55;;;6.30;;
15831;SDS011;8016;49.928;9.372;2023-07-24T09:48:55;7.20;;;6.18;;
15831;SDS011;8016;49.928;9.372;2023-07-24T09:51:22;7.57;;;5.90;;
15831;SDS011;8016;49.928;9.372;2023-07-24T09:56:14;6.43;;;5.68;;
15831;SDS011;8016;49.928;9.372;2023-07-24T09:58:41;6.05;;;5.10;;
15831;SDS011;8016;49.928;9.372;2023-07-24T10:01:08;9.07;;;5.35;;
15831;SDS011;8016;49.928;9.372;2023-07-24T10:03:35;7.75;;;5.80;;
15831;SDS011;8016;49.928;9.372;2023-07-24T10:06:01;6.88;;;5.00;;
15831;SDS011;8016;49.928;9.372;2023-07-24T10:08:27;6.00;;;5.45;;
15831;SDS011;8016;49.928;9.372;2023-07-24T10:10:53;5.32;;;4.82;;
15831;SDS011;8016;49.928;9.372;2023-07-24T10:13:20;4.75;;;4.32;;
15831;SDS011;8016;49.928;9.372;2023-07-24T10:15:47;7.28;;;4.82;;
15831;SDS011;8016;49.928;9.372;2023-07-24T10:18:14;7.75;;;5.82;;
15831;SDS011;8016;49.928;9.372;2023-07-24T10:20:41;6.82;;;4.82;;
15831;SDS011;8016;49.928;9.372;2023-07-24T10:23:08;5.25;;;4.55;;
15831;SDS011;8016;49.928;9.372;2023-07-24T10:25:35;5.35;;;4.85;;
15831;SDS011;8016;49.928;9.372;2023-07-24T10:28:05;5.40;;;4.90;;
15831;SDS011;8016;49.928;9.372;2023-07-24T10:30:42;5.13;;;4.63;;
15831;SDS011;8016;49.928;9.372;2023-07-24T10:33:18;5.95;;;5.35;;
15831;SDS011;8016;49.928;9.372;2023-07-24T10:35:45;4.95;;;4.55;;
15831;SDS011;8016;49.928;9.372;2023-07-24T10:38:15;6.10;;;5.10;;
15831;SDS011;8016;49.928;9.372;2023-07-24T10:40:42;8.20;;;5.40;;
15831;SDS011;8016;49.928;9.372;2023-07-24T10:48:13;5.87;;;4.83;;
15831;SDS011;8016;49.928;9.372;2023-07-24T10:50:40;7.20;;;5.33;;
15831;SDS011;8016;49.928;9.372;2023-07-24T10:53:07;5.88;;;5.22;;
15831;SDS011;8016;49.928;9.372;2023-07-24T10:55:33;5.83;;;5.13;;
15831;SDS011;8016;49.928;9.372;2023-07-24T10:57:59;5.60;;;5.03;;
15831;SDS011;8016;49.928;9.372;2023-07-24T11:00:25;6.40;;;5.30;;
15831;SDS011;8016;49.928;9.372;2023-07-24T11:02:52;6.10;;;5.27;;
15831;SDS011;8016;49.928;9.372;2023-07-24T11:05:19;5.57;;;5.07;;
15831;SDS011;8016;49.928;9.372;2023-07-24T11:07:46;6.03;;;5.07;;
15831;SDS011;8016;49.928;9.372;2023-07-24T11:10:18;6.33;;;5.27;;
15831;SDS011;8016;49.928;9.372;2023-07-24T11:12:44;6.38;;;5.07;;
15831;SDS011;8016;49.928;9.372;2023-07-24T11:15:11;5.77;;;5.03;;
15831;SDS011;8016;49.928;9.372;2023-07-24T11:17:38;5.95;;;5.00;;
15831;SDS011;8016;49.928;9.372;2023-07-24T11:20:08;6.07;;;4.63;;
15831;SDS011;8016;49.928;9.372;2023-07-24T11:22:34;5.65;;;5.10;;
15831;SDS011;8016;49.928;9.372;2023-07-24T11:25:00;7.03;;;4.77;;
15831;SDS011;8016;49.928;9.372;2023-07-24T11:27:26;5.80;;;4.90;;
15831;SDS011;8016;49.928;9.372;2023-07-24T11:29:52;8.18;;;5.32;;
15831;SDS011;8016;49.928;9.372;2023-07-24T11:32:19;5.20;;;4.70;;
15831;SDS011;8016;49.928;9.372;2023-07-24T11:34:46;6.35;;;4.80;;
15831;SDS011;8016;49.928;9.372;2023-07-24T11:37:12;6.45;;;5.35;;
15831;SDS011;8016;49.928;9.372;2023-07-24T11:39:38;5.82;;;5.03;;
15831;SDS011;8016;49.928;9.372;2023-07-24T11:42:04;6.35;;;5.03;;
15831;SDS011;8016;49.928;9.372;2023-07-24T11:44:30;5.50;;;4.75;;
15831;SDS011;8016;49.928;9.372;2023-07-24T11:47:00;6.28;;;5.10;;
15831;SDS011;8016;49.928;9.372;2023-07-24T11:49:27;7.20;;;5.20;;
15831;SDS011;8016;49.928;9.372;2023-07-24T11:51:59;6.57;;;5.40;;
15831;SDS011;8016;49.928;9.372;2023-07-24T11:54:25;4.90;;;4.40;;
15831;SDS011;8016;49.928;9.372;2023-07-24T11:56:51;6.38;;;5.32;;
15831;SDS011;8016;49.928;9.372;2023-07-24T11:59:17;6.38;;;5.07;;
15831;SDS011;8016;49.928;9.372;2023-07-24T12:01:46;6.90;;;5.25;;
15831;SDS011;8016;49.928;9.372;2023-07-24T12:04:13;5.63;;;4.80;;
15831;SDS011;8016;49.928;9.372;2023-07-24T12:06:39;5.75;;;5.10;;
15831;SDS011;8016;49.928;9.372;2023-07-24T12:09:05;6.93;;;5.18;;
15831;SDS011;8016;49.928;9.372;2023-07-24T12:11:32;5.97;;;5.38;;
15831;SDS011;8016;49.928;9.372;2023-07-24T12:13:58;7.63;;;5.28;;
15831;SDS011;8016;49.928;9.372;2023-07-24T12:16:24;6.45;;;5.13;;
15831;SDS011;8016;49.928;9.372;2023-07-24T12:18:50;7.88;;;5.28;;
15831;SDS011;8016;49.928;9.372;2023-07-24T12:21:16;5.45;;;4.90;;
15831;SDS011;8016;49.928;9.372;2023-07-24T12:23:42;7.20;;;5.60;;
15831;SDS011;8016;49.928;9.372;2023-07-24T12:26:08;5.88;;;5.07;;
15831;SDS011;8016;49.928;9.372;2023-07-24T12:28:34;5.80;;;5.20;;
15831;SDS011;8016;49.928;9.372;2023-07-24T12:30:59;5.18;;;4.68;;
15831;SDS011;8016;49.928;9.372;2023-07-24T12:33:27;6.28;;;5.10;;
15831;SDS011;8016;49.928;9.372;2023-07-24T12:35:53;5.40;;;4.70;;
15831;SDS011;8016;49.928;9.372;2023-07-24T12:38:19;5.00;;;4.50;;
15831;SDS011;8016;49.928;9.372;2023-07-24T12:40:45;6.70;;;5.15;;
15831;SDS011;8016;49.928;9.372;2023-07-24T12:43:11;6.25;;;5.15;;
15831;SDS011;8016;49.928;9.372;2023-07-24T12:45:37;5.93;;;4.57;;
15831;SDS011;8016;49.928;9.372;2023-07-24T12:48:03;7.50;;;4.97;;
15831;SDS011;8016;49.928;9.372;2023-07-24T12:50:29;6.90;;;4.75;;
15831;SDS011;8016;49.928;9.372;2023-07-24T12:52:55;5.55;;;5.05;;
15831;SDS011;8016;49.928;9.372;2023-07-24T12:55:21;5.82;;;4.90;;
15831;SDS011;8016;49.928;9.372;2023-07-24T12:57:47;5.70;;;5.05;;
15831;SDS011;8016;49.928;9.372;2023-07-24T13:00:13;6.53;;;5.28;;
15831;SDS011;8016;49.928;9.372;2023-07-24T13:02:39;6.40;;;5.10;;
15831;SDS011;8016;49.928;9.372;2023-07-24T13:05:05;6.50;;;5.80;;
15831;SDS011;8016;49.928;9.372;2023-07-24T13:07:31;6.43;;;4.72;;
15831;SDS011;8016;49.928;9.372;2023-07-24T13:09:57;7.88;;;5.15;;
15831;SDS011;8016;49.928;9.372;2023-07-24T13:12:23;6.25;;;5.03;;
15831;SDS011;8016;49.928;9.372;2023-07-24T13:14:49;5.93;;;5.28;;
15831;SDS011;8016;49.928;9.372;2023-07-24T13:17:15;6.20;;;5.20;;
15831;SDS011;8016;49.928;9.372;2023-07-24T13:19:41;8.25;;;5.22;;
15831;SDS011;8016;49.928;9.372;2023-07-24T13:22:07;5.75;;;4.60;;
15831;SDS011;8016;49.928;9.372;2023-07-24T13:24:33;5.53;;;5.03;;
15831;SDS011;8016;49.928;9.372;2023-07-24T13:26:59;5.65;;;4.57;;
15831;SDS011;8016;49.928;9.372;2023-07-24T13:29:26;5.40;;;4.90;;
15831;SDS011;8016;49.928;9.372;2023-07-24T13:31:52;5.75;;;5.22;;
15831;SDS011;8016;49.928;9.372;2023-07-24T13:34:18;5.50;;;4.93;;
15831;SDS011;8016;49.928;9.372;2023-07-24T13:36:45;5.32;;;4.80;;
15831;SDS011;8016;49.928;9.372;2023-07-24T13:39:11;6.15;;;5.50;;
15831;SDS011;8016;49.928;9.372;2023-07-24T13:41:37;6.03;;;5.43;;
15831;SDS011;8016;49.928;9.372;2023-07-24T13:44:04;7.13;;;5.60;;
15831;SDS011;8016;49.928;9.372;2023-07-24T13:46:30;5.38;;;4.85;;
15831;SDS011;8016;49.928;9.372;2023-07-24T13:48:56;6.55;;;5.38;;
15831;SDS011;8016;49.928;9.372;2023-07-24T13:51:22;7.40;;;5.55;;
15831;SDS011;8016;49.928;9.372;2023-07-24T13:53:48;6.18;;;5.35;;
15831;SDS011;8016;49.928;9.372;2023-07-24T13:56:16;6.65;;;5.95;;
15831;SDS011;8016;49.928;9.372;2023-07-24T13:58:43;6.68;;;5.22;;
15831;SDS011;8016;49.928;9.372;2023-07-24T14:01:09;6.35;;;5.72;;
15831;SDS011;8016;49.928;9.372;2023-07-24T14:03:35;7.28;;;6.25;;
15831;SDS011;8016;49.928;9.372;2023-07-24T14:06:01;6.80;;;5.70;;
15831;SDS011;8016;49.928;9.372;2023-07-24T14:08:27;10.73;;;6.18;;
15831;SDS011;8016;49.928;9.372;2023-07-24T14:10:53;6.20;;;5.60;;
15831;SDS011;8016;49.928;9.372;2023-07-24T14:13:19;6.00;;;5.40;;
15831;SDS011;8016;49.928;9.372;2023-07-24T14:15:45;6.97;;;6.15;;
15831;SDS011;8016;49.928;9.372;2023-07-24T14:18:11;6.90;;;6.20;;
15831;SDS011;8016;49.928;9.372;2023-07-24T14:20:37;6.72;;;5.15;;
15831;SDS011;8016;49.928;9.372;2023-07-24T14:23:05;7.05;;;6.32;;
15831;SDS011;8016;49.928;9.372;2023-07-24T14:25:31;6.53;;;5.93;;
15831;SDS011;8016;49.928;9.372;2023-07-24T14:27:57;6.32;;;5.70;;
15831;SDS011;8016;49.928;9.372;2023-07-24T14:30:23;7.72;;;6.03;;
15831;SDS011;8016;49.928;9.372;2023-07-24T14:32:49;6.70;;;5.70;;
15831;SDS011;8016;49.928;9.372;2023-07-24T14:35:15;6.53;;;5.93;;
15831;SDS011;8016;49.928;9.372;2023-07-24T14:37:41;6.47;;;5.85;;
15831;SDS011;8016;49.928;9.372;2023-07-24T14:40:09;8.25;;;6.28;;
15831;SDS011;8016;49.928;9.372;2023-07-24T14:42:36;6.78;;;6.05;;
15831;SDS011;8016;49.928;9.372;2023-07-24T14:45:02;5.88;;;5.28;;
15831;SDS011;8016;49.928;9.372;2023-07-24T14:47:28;9.10;;;5.95;;
15831;SDS011;8016;49.928;9.372;2023-07-24T14:49:56;6.78;;;6.05;;
15831;SDS011;8016;49.928;9.372;2023-07-24T14:52:22;6.85;;;6.00;;
15831;SDS011;8016;49.928;9.372;2023-07-24T14:54:49;6.47;;;5.35;;
15831;SDS011;8016;49.928;9.372;2023-07-24T14:57:15;7.60;;;5.90;;
15831;SDS011;8016;49.928;9.372;2023-07-24T14:59:40;6.40;;;5.70;;
15831;SDS011;8016;49.928;9.372;2023-07-24T15:02:06;7.03;;;5.70;;
15831;SDS011;8016;49.928;9.372;2023-07-24T15:04:33;8.57;;;6.72;;
15831;SDS011;8016;49.928;9.372;2023-07-24T15:06:59;12.73;;;6.78;;